Time;durP1;ratioP1;P1;durP2;ratioP2;P2;SDS_P1;SDS_P2;PMS_P1;PMS_P2;Temp;Humidity;BMP_temperature;BMP_pressure;BME280_temperature;BME280_humidity;BME280_pressure;Samples;Min_cycle;Max_cycle;Signal;HPM_P1;HPM_P2
2022/01/24 00:02:13;;;;;;;123.30;41.50;;;;;;;4.51;89.57;103491.78;5082104;28;20020;-71
2022/01/24 00:04:41;;;;;;;120.07;41.92;;;;;;;4.50;89.61;103494.22;5081370;28;20156;-70
2022/01/24 00:07:11;;;;;;;118.93;41.33;;;;;;;4.48;89.77;103490.63;5080684;28;20020;-71
2022/01/24 00:09:39;;;;;;;121.28;42.50;;;;;;;4.47;89.02;103484.53;5083078;28;20216;-70
2022/01/24 00:14:57;;;;;;;117.65;41.65;;;;;;;4.46;88.68;103492.13;5082087;28;20036;-70
2022/01/24 00:17:33;;;;;;;109.50;40.08;;;;;;;4.44;89.08;103488.50;5081466;28;20025;-71
2022/01/24 00:28:11;;;;;;;114.68;40.28;;;;;;;4.42;88.65;103484.88;5082052;28;20096;-70
2022/01/24 00:30:37;;;;;;;117.35;40.28;;;;;;;4.41;88.32;103488.25;5082106;28;20037;-71
2022/01/24 00:33:03;;;;;;;111.38;39.50;;;;;;;4.40;89.42;103482.16;5082908;28;20172;-71
2022/01/24 00:35:28;;;;;;;114.13;39.15;;;;;;;4.39;89.48;103484.59;5085712;28;20105;-70
2022/01/24 00:37:59;;;;;;;113.00;38.55;;;;;;;4.38;88.22;103481.13;5084719;28;20020;-70
2022/01/24 00:40:26;;;;;;;106.68;38.15;;;;;;;4.38;87.66;103477.63;5085426;28;20088;-70
2022/01/24 00:42:55;;;;;;;99.15;36.30;;;;;;;4.37;86.53;103476.72;5080092;28;20054;-71
2022/01/24 00:53:38;;;;;;;92.60;33.47;;;;;;;4.38;85.96;103480.22;5085687;28;20024;-71
2022/01/24 00:56:04;;;;;;;;;;;;;;;4.42;88.18;103482.28;5085985;28;20028;-70
2022/01/24 00:58:29;;;;;;;89.35;32.97;;;;;;;4.37;86.37;103480.97;5080329;28;20184;-70
2022/01/24 01:00:55;;;;;;;91.97;33.88;;;;;;;4.34;86.64;103482.53;5085034;28;20083;-70
2022/01/24 01:03:21;;;;;;;90.10;32.70;;;;;;;4.33;86.22;103480.69;5082041;28;20083;-70
2022/01/24 01:06:06;;;;;;;86.57;32.78;;;;;;;4.31;86.22;103471.88;5084784;28;20303;-70
2022/01/24 01:19:31;;;;;;;87.35;31.48;;;;;;;4.30;87.04;103472.69;5075964;28;20159;-70
2022/01/24 01:21:57;;;;;;;101.88;33.95;;;;;;;4.28;86.62;103474.19;5082788;28;20020;-70
2022/01/24 01:24:23;;;;;;;95.30;33.42;;;;;;;4.27;86.59;103466.31;5073899;28;20021;-70
2022/01/24 01:27:04;;;;;;;99.63;34.90;;;;;;;4.26;87.21;103472.22;5082611;28;20044;-70
2022/01/24 01:29:43;;;;;;;97.20;33.58;;;;;;;4.25;85.40;103463.59;5082542;28;20044;-70
2022/01/24 01:35:29;;;;;;;98.78;34.03;;;;;;;4.29;85.57;103462.22;5053897;28;20046;-70
2022/01/24 01:56:55;;;;;;;91.38;32.08;;;;;;;4.22;86.45;103462.41;5071001;28;20048;-70
2022/01/24 01:59:20;;;;;;;93.95;32.40;;;;;;;4.23;86.18;103467.72;5082323;28;20035;-71
2022/01/24 02:01:45;;;;;;;88.80;32.55;;;;;;;4.22;86.19;103460.75;5083195;28;20016;-70
2022/01/24 02:04:11;;;;;;;86.10;31.25;;;;;;;4.22;87.17;103465.00;5079342;28;20207;-70
2022/01/24 02:06:38;;;;;;;90.35;32.05;;;;;;;4.22;86.71;103470.16;5079877;28;20027;-70
2022/01/24 02:09:07;;;;;;;93.78;32.63;;;;;;;4.20;86.75;103469.09;5080828;28;20025;-70
2022/01/24 02:11:33;;;;;;;95.40;33.42;;;;;;;4.20;86.08;103459.69;5077696;28;20051;-70
2022/01/24 02:14:02;;;;;;;88.75;31.90;;;;;;;4.19;85.79;103460.47;5079969;28;20074;-70
2022/01/24 02:21:46;;;;;;;93.85;33.22;;;;;;;4.16;86.31;103455.91;5085607;28;20055;-70
2022/01/24 02:24:13;;;;;;;89.07;33.45;;;;;;;4.17;86.23;103446.50;5080416;28;20024;-70
2022/01/24 02:26:40;;;;;;;90.70;32.40;;;;;;;4.18;86.10;103453.47;5076241;28;20019;-70
2022/01/24 02:29:33;;;;;;;94.75;32.05;;;;;;;4.16;84.47;103450.75;5081784;28;20028;-70
2022/01/24 02:31:59;;;;;;;83.00;29.65;;;;;;;4.17;84.12;103444.84;5071042;28;20304;-70
2022/01/24 02:34:35;;;;;;;88.38;30.27;;;;;;;4.18;84.20;103449.22;5079468;28;20031;-70
2022/01/24 02:37:05;;;;;;;81.90;29.85;;;;;;;4.18;84.33;103449.22;5077129;28;20191;-70
2022/01/24 02:50:22;;;;;;;82.57;30.95;;;;;;;4.16;85.09;103444.69;5083187;28;20062;-70
2022/01/24 02:52:47;;;;;;;83.28;30.67;;;;;;;4.14;85.91;103439.41;5074240;28;20023;-70
2022/01/24 02:55:13;;;;;;;79.93;29.48;;;;;;;4.13;86.46;103432.41;5080505;28;20028;-70
2022/01/24 02:57:38;;;;;;;79.80;30.25;;;;;;;4.13;86.70;103440.16;5086699;28;20087;-70
2022/01/24 03:00:04;;;;;;;83.45;30.40;;;;;;;4.11;86.62;103444.28;5081504;28;20035;-70
2022/01/24 03:02:29;;;;;;;84.25;31.10;;;;;;;4.10;86.19;103434.72;5080441;28;20024;-70
2022/01/24 03:04:56;;;;;;;93.00;31.10;;;;;;;4.09;86.54;103432.91;5081700;28;20170;-70
2022/01/24 03:07:21;;;;;;;89.90;30.77;;;;;;;4.08;85.75;103423.34;5081165;28;20025;-70
2022/01/24 03:09:49;;;;;;;78.82;28.25;;;;;;;4.08;86.60;103431.06;5082049;28;20024;-70
2022/01/24 03:12:24;;;;;;;77.97;29.65;;;;;;;4.07;86.01;103430.94;5076460;28;20032;-70
2022/01/24 03:14:50;;;;;;;81.38;29.35;;;;;;;4.06;86.37;103430.03;5078443;28;20052;-70
2022/01/24 03:17:15;;;;;;;82.13;29.20;;;;;;;4.05;86.26;103425.63;5077426;28;20032;-70
2022/01/24 03:19:40;;;;;;;86.57;30.10;;;;;;;4.05;84.08;103437.63;5078317;28;20105;-70
2022/01/24 03:22:08;;;;;;;87.22;29.27;;;;;;;4.05;84.64;103435.06;5079408;28;20020;-70
2022/01/24 03:24:34;;;;;;;81.43;29.80;;;;;;;4.06;83.96;103426.56;5074727;28;20096;-70
2022/01/24 03:26:59;;;;;;;81.70;29.65;;;;;;;4.05;83.35;103417.91;5081292;28;20020;-70
2022/01/24 03:29:24;;;;;;;76.68;28.63;;;;;;;4.06;83.77;103416.25;5081687;28;20100;-70
2022/01/24 03:31:49;;;;;;;86.97;30.48;;;;;;;4.06;82.13;103417.13;5079179;28;20586;-70
2022/01/24 03:34:15;;;;;;;77.70;28.27;;;;;;;4.06;82.56;103421.41;5080918;28;20020;-70
2022/01/24 03:36:42;;;;;;;79.40;28.13;;;;;;;4.05;82.32;103417.00;5081944;28;20215;-70
2022/01/24 03:39:08;;;;;;;73.13;26.45;;;;;;;4.05;82.38;103417.00;5086979;28;20178;-70
2022/01/24 03:41:33;;;;;;;79.32;29.88;;;;;;;4.06;82.41;103414.56;5083103;28;20016;-70
2022/01/24 03:44:03;;;;;;;79.38;28.98;;;;;;;4.08;83.37;103409.53;5078636;28;20021;-70
2022/01/24 03:46:46;;;;;;;78.03;28.15;;;;;;;4.08;84.50;103415.59;5082295;28;20093;-71
2022/01/24 03:49:44;;;;;;;81.28;28.35;;;;;;;4.08;84.27;103422.44;5078145;28;20079;-71
2022/01/24 03:51:56;;;;;;;83.20;29.15;;;;;;;4.08;83.47;103430.19;5076856;28;20078;-70
2022/01/24 03:54:22;;;;;;;77.95;29.23;;;;;;;4.09;83.52;103424.25;5079204;28;20013;-70
2022/01/24 03:56:47;;;;;;;81.68;28.63;;;;;;;4.10;84.10;103415.72;5082778;28;20032;-70
2022/01/24 03:59:12;;;;;;;83.20;28.40;;;;;;;4.10;85.00;103426.97;5078627;28;20294;-70
2022/01/24 04:01:37;;;;;;;81.65;29.48;;;;;;;4.08;84.69;103412.13;5081110;28;20039;-70
2022/01/24 04:04:03;;;;;;;83.20;29.77;;;;;;;4.08;84.76;103419.84;5072216;28;20116;-70
2022/01/24 04:06:28;;;;;;;78.15;26.80;;;;;;;4.07;85.20;103424.13;5079765;28;20248;-70
2022/01/24 04:08:53;;;;;;;81.72;28.77;;;;;;;4.06;85.42;103417.13;5079676;28;20012;-71
2022/01/24 04:11:19;;;;;;;83.80;29.65;;;;;;;4.05;85.14;103417.91;5068803;28;20307;-71
2022/01/24 04:13:45;;;;;;;78.78;28.73;;;;;;;4.04;84.80;103412.59;5071231;28;20024;-70
2022/01/24 04:16:29;;;;;;;76.93;27.70;;;;;;;4.02;84.95;103414.16;5072783;28;20148;-70
2022/01/24 04:21:28;;;;;;;81.03;28.20;;;;;;;4.01;85.71;103413.22;5070561;28;20174;-70
2022/01/24 04:24:11;;;;;;;78.05;28.98;;;;;;;4.02;84.98;103409.00;5071126;28;20064;-70
2022/01/24 04:26:37;;;;;;;86.88;29.25;;;;;;;4.01;85.39;103402.91;5078606;28;20217;-70
2022/01/24 04:29:04;;;;;;;83.00;29.23;;;;;;;3.99;85.46;103395.03;5072793;28;20040;-70
2022/01/24 04:31:30;;;;;;;81.78;29.17;;;;;;;3.99;85.84;103407.03;5070679;28;20025;-70
2022/01/24 04:33:56;;;;;;;79.93;29.73;;;;;;;3.99;86.59;103409.59;5083995;28;20015;-70
2022/01/24 04:36:22;;;;;;;80.35;27.60;;;;;;;3.98;86.19;103408.72;5082671;28;20069;-70
2022/01/24 04:38:47;;;;;;;76.40;27.65;;;;;;;3.96;86.45;103417.06;5091362;28;20035;-70
2022/01/24 04:41:23;;;;;;;79.50;29.00;;;;;;;3.96;86.32;103412.81;5085862;28;20036;-70
2022/01/24 04:56:56;;;;;;;97.57;31.88;;;;;;;3.93;82.40;103415.09;5074123;28;20021;-70
2022/01/24 04:59:21;;;;;;;93.22;32.28;;;;;;;3.94;83.06;103413.41;5076698;28;20067;-70
2022/01/24 05:01:46;;;;;;;86.10;29.10;;;;;;;3.95;85.28;103418.75;5088973;28;20271;-70
2022/01/24 05:04:12;;;;;;;92.85;30.58;;;;;;;3.95;85.24;103421.31;5085391;28;20078;-71
2022/01/24 05:06:37;;;;;;;87.32;29.98;;;;;;;3.94;85.75;103421.16;5078676;28;20024;-70
2022/01/24 05:09:05;;;;;;;80.90;29.30;;;;;;;3.94;85.32;103427.25;5084532;28;20032;-70
2022/01/24 05:11:49;;;;;;;94.45;30.45;;;;;;;3.94;85.48;103426.31;5074298;28;20020;-70
2022/01/24 05:25:10;;;;;;;93.32;31.83;;;;;;;3.91;84.91;103419.22;5077573;28;20096;-70
2022/01/24 05:27:35;;;;;;;99.40;32.72;;;;;;;3.92;84.83;103415.84;5082491;28;20021;-70
2022/01/24 05:30:01;;;;;;;95.70;31.55;;;;;;;3.91;85.64;103416.66;5081677;28;20020;-70
2022/01/24 05:32:26;;;;;;;97.35;31.20;;;;;;;3.90;86.20;103412.25;5078286;28;20039;-71
2022/01/24 05:34:51;;;;;;;95.10;31.27;;;;;;;3.90;85.83;103413.94;5080775;28;20077;-70
2022/01/24 05:37:17;;;;;;;99.50;32.58;;;;;;;3.89;85.77;103413.00;5081330;28;20020;-70
2022/01/24 05:39:42;;;;;;;98.85;32.63;;;;;;;3.86;85.42;103407.56;5093801;28;20070;-71
2022/01/24 05:42:07;;;;;;;95.05;32.13;;;;;;;3.88;85.91;103406.06;5071594;28;20083;-70
2022/01/24 05:44:33;;;;;;;93.65;32.17;;;;;;;3.88;86.23;103405.13;5076104;28;20219;-70
2022/01/24 05:46:58;;;;;;;97.85;32.80;;;;;;;3.88;86.21;103406.06;5085521;28;20024;-70
2022/01/24 05:49:23;;;;;;;102.28;32.65;;;;;;;3.88;86.02;103411.22;5077717;28;20056;-70
2022/01/24 05:51:49;;;;;;;98.70;32.47;;;;;;;3.87;84.90;103414.53;5082174;28;20267;-70
2022/01/24 05:54:14;;;;;;;101.13;33.95;;;;;;;3.86;85.57;103417.88;5074295;28;20028;-71
2022/01/24 05:56:39;;;;;;;99.57;33.30;;;;;;;3.87;84.71;103419.69;5088035;28;20024;-70
2022/01/24 05:59:04;;;;;;;97.95;32.63;;;;;;;3.87;85.97;103417.13;5076662;28;20058;-71
2022/01/24 06:01:30;;;;;;;96.18;31.63;;;;;;;3.87;86.00;103418.78;5076926;28;20243;-70
2022/01/24 06:03:55;;;;;;;103.88;32.85;;;;;;;3.86;85.79;103422.13;5082700;28;20115;-70
2022/01/24 06:06:20;;;;;;;102.10;33.13;;;;;;;3.84;85.13;103419.41;5082113;28;20020;-70
2022/01/24 06:08:45;;;;;;;100.70;32.00;;;;;;;3.85;84.07;103416.06;5081635;28;20024;-71
2022/01/24 06:11:11;;;;;;;99.65;32.60;;;;;;;3.85;85.05;103422.91;5076414;28;20020;-70
2022/01/24 06:13:36;;;;;;;95.40;31.23;;;;;;;3.85;85.24;103417.75;5080667;28;20179;-70
2022/01/24 06:16:01;;;;;;;96.45;32.63;;;;;;;3.84;84.34;103419.41;5074256;28;20027;-70
2022/01/24 06:18:27;;;;;;;102.85;33.25;;;;;;;3.84;84.41;103419.41;5074321;28;20236;-71
2022/01/24 06:20:53;;;;;;;94.45;32.33;;;;;;;3.85;84.55;103415.16;5071573;28;20040;-71
2022/01/24 06:23:19;;;;;;;99.57;32.80;;;;;;;3.83;84.67;103410.75;5075557;28;20036;-71
2022/01/24 06:25:45;;;;;;;97.60;33.17;;;;;;;3.85;84.97;103415.16;5076479;28;20416;-71
2022/01/24 06:28:11;;;;;;;98.95;33.80;;;;;;;3.83;85.85;103421.06;5078937;28;20021;-70
2022/01/24 06:30:36;;;;;;;100.57;33.25;;;;;;;3.82;85.72;103416.72;5071739;28;20083;-70
2022/01/24 06:33:02;;;;;;;84.07;29.80;;;;;;;3.82;85.63;103421.88;5069485;28;20224;-70
2022/01/24 06:35:27;;;;;;;98.93;32.17;;;;;;;3.83;85.39;103422.75;5066431;28;20046;-70
2022/01/24 06:37:53;;;;;;;98.75;33.15;;;;;;;3.82;85.76;103415.78;5077346;28;20262;-71
2022/01/24 06:40:18;;;;;;;101.65;31.52;;;;;;;3.81;85.88;103424.31;5076407;28;20285;-70
2022/01/24 06:42:44;;;;;;;97.80;32.17;;;;;;;3.79;85.55;103406.06;5092241;28;20028;-71
2022/01/24 06:45:09;;;;;;;98.05;31.42;;;;;;;3.79;86.13;103416.38;5075849;28;20021;-70
2022/01/24 06:47:35;;;;;;;92.32;31.08;;;;;;;3.79;85.30;103416.38;5083642;28;20091;-70
2022/01/24 06:50:00;;;;;;;94.40;31.05;;;;;;;3.78;85.50;103417.19;5068506;28;20202;-70
2022/01/24 06:52:26;;;;;;;97.40;31.50;;;;;;;3.78;85.54;103424.00;5068747;28;20080;-70
2022/01/24 06:54:51;;;;;;;92.55;31.25;;;;;;;3.78;85.85;103429.16;5079246;28;20020;-70
2022/01/24 06:57:16;;;;;;;92.45;31.60;;;;;;;3.79;85.48;103426.72;5082523;28;20279;-70
2022/01/24 06:59:44;;;;;;;95.13;31.65;;;;;;;3.76;84.84;103428.09;5068881;28;20279;-70
2022/01/24 07:02:11;;;;;;;101.22;33.38;;;;;;;3.74;85.47;103427.06;5076164;28;20028;-70
2022/01/24 07:04:39;;;;;;;88.70;31.23;;;;;;;3.71;84.55;103426.75;5082730;28;20097;-70
2022/01/24 07:07:05;;;;;;;97.88;30.33;;;;;;;3.69;84.64;103434.34;5082746;28;20023;-70
2022/01/24 07:09:30;;;;;;;86.13;28.40;;;;;;;3.67;84.44;103430.75;5068566;28;20029;-70
2022/01/24 07:11:56;;;;;;;95.30;31.08;;;;;;;3.66;84.50;103434.06;5069931;28;20091;-70
2022/01/24 07:14:21;;;;;;;88.93;30.05;;;;;;;3.65;84.30;103434.84;5078673;28;20028;-70
2022/01/24 07:19:29;;;;;;;101.88;31.08;;;;;;;3.65;84.91;103437.44;5079368;28;20144;-70
2022/01/24 07:21:57;;;;;;;95.10;29.58;;;;;;;3.66;84.99;103444.38;5083864;28;20016;-70
2022/01/24 07:24:24;;;;;;;93.33;29.87;;;;;;;3.66;84.94;103436.66;5082977;28;20043;-70
2022/01/24 07:26:49;;;;;;;86.50;28.77;;;;;;;3.67;84.93;103438.47;5082261;28;20020;-70
2022/01/24 07:29:15;;;;;;;86.63;28.27;;;;;;;3.67;84.61;103441.06;5082864;28;20017;-70
2022/01/24 07:31:40;;;;;;;87.78;27.65;;;;;;;3.67;85.08;103450.47;5077256;28;20025;-70
2022/01/24 07:34:05;;;;;;;88.97;28.30;;;;;;;3.67;85.28;103440.16;5068633;28;20069;-70
2022/01/24 07:36:31;;;;;;;80.70;27.35;;;;;;;3.68;84.55;103440.28;5085327;28;20333;-70
2022/01/24 07:38:56;;;;;;;83.43;27.83;;;;;;;3.68;85.01;103445.44;5075284;28;20021;-70
2022/01/24 07:41:27;;;;;;;79.07;25.77;;;;;;;3.65;84.60;103438.34;5078956;28;20144;-70
2022/01/24 07:43:53;;;;;;;76.10;25.92;;;;;;;3.64;85.23;103433.94;5074939;28;20255;-70
2022/01/24 07:46:19;;;;;;;82.35;26.10;;;;;;;3.65;85.34;103440.91;5070850;28;20020;-70
2022/01/24 07:48:44;;;;;;;79.03;27.17;;;;;;;3.64;84.66;103446.81;5072905;28;20023;-70
2022/01/24 07:51:10;;;;;;;70.53;24.88;;;;;;;3.64;84.09;103440.78;5076726;28;20027;-70
2022/01/24 07:53:36;;;;;;;71.93;25.55;;;;;;;3.63;84.11;103446.69;5082943;28;20118;-70
2022/01/24 07:56:05;;;;;;;78.30;26.35;;;;;;;3.65;84.12;103453.81;5080084;28;20264;-70
2022/01/24 07:58:31;;;;;;;;;;;;;;;3.71;85.32;103458.63;5084308;28;20029;-70
2022/01/24 08:00:57;;;;;;;86.20;25.33;;;;;;;3.67;84.24;103468.53;5071510;28;20191;-70
2022/01/24 08:03:22;;;;;;;80.53;26.85;;;;;;;3.65;84.36;103469.28;5086162;28;20171;-70
2022/01/24 08:05:48;;;;;;;88.70;27.98;;;;;;;3.67;82.99;103476.25;5072372;28;20036;-70
2022/01/24 08:08:13;;;;;;;83.35;28.77;;;;;;;3.67;83.36;103471.09;5085859;28;20032;-70
2022/01/24 08:10:39;;;;;;;81.10;28.20;;;;;;;3.68;83.32;103472.88;5074274;28;20021;-70
2022/01/24 08:13:04;;;;;;;81.18;26.92;;;;;;;3.68;84.26;103472.88;5081958;28;20021;-70
2022/01/24 08:15:29;;;;;;;80.40;27.23;;;;;;;3.67;84.00;103473.69;5074504;28;20029;-70
2022/01/24 08:17:55;;;;;;;77.60;25.40;;;;;;;3.68;83.57;103480.63;5075905;28;20020;-70
2022/01/24 08:20:21;;;;;;;82.57;28.65;;;;;;;3.67;83.89;103476.25;5077230;28;20271;-70
2022/01/24 08:22:47;;;;;;;87.85;28.20;;;;;;;3.67;84.00;103472.00;5088683;28;20077;-70
2022/01/24 08:25:13;;;;;;;86.20;28.63;;;;;;;3.68;84.65;103475.47;5073909;28;20059;-70
2022/01/24 08:27:39;;;;;;;103.78;33.85;;;;;;;3.68;83.55;103472.88;5073746;28;20036;-71
2022/01/24 08:30:08;;;;;;;101.00;32.53;;;;;;;3.67;83.45;103476.25;5081000;28;20024;-70
2022/01/24 08:32:33;;;;;;;104.35;31.98;;;;;;;3.69;83.81;103474.72;5073529;28;20164;-70
2022/01/24 08:35:00;;;;;;;111.22;33.28;;;;;;;3.69;83.43;103479.88;5085669;28;20024;-70
2022/01/24 08:37:26;;;;;;;95.00;31.33;;;;;;;3.69;82.81;103479.88;5081446;28;20049;-70
2022/01/24 08:39:51;;;;;;;101.72;31.15;;;;;;;3.68;83.35;103473.81;5086209;28;20205;-70
2022/01/24 08:42:34;;;;;;;94.45;31.35;;;;;;;3.68;83.63;103478.03;5082195;28;20040;-70
2022/01/24 08:47:31;;;;;;;95.13;31.77;;;;;;;3.64;82.80;103477.75;5086312;28;20020;-70
2022/01/24 08:49:58;;;;;;;90.30;30.48;;;;;;;3.63;82.24;103481.09;5083168;28;20020;-70
2022/01/24 08:52:25;;;;;;;94.93;33.10;;;;;;;3.61;82.03;103482.63;5081386;28;20048;-70
2022/01/24 08:54:52;;;;;;;97.13;31.10;;;;;;;3.63;82.08;103480.19;5078919;28;20024;-70
2022/01/24 08:57:21;;;;;;;95.15;33.00;;;;;;;3.64;81.84;103489.75;5085611;28;20278;-70
2022/01/24 08:59:47;;;;;;;;;;;;;;;3.67;83.57;103486.56;5076273;28;20368;-70
2022/01/24 09:02:12;;;;;;;88.43;30.13;;;;;;;3.60;82.43;103479.91;5084414;28;20153;-70
2022/01/24 09:04:37;;;;;;;90.63;30.20;;;;;;;3.58;83.32;103487.50;5082683;28;20208;-70
2022/01/24 09:07:05;;;;;;;97.00;30.65;;;;;;;3.58;82.61;103484.91;5082145;28;20025;-70
2022/01/24 09:09:35;;;;;;;94.78;31.10;;;;;;;3.58;82.34;103481.44;5075149;28;20163;-70
2022/01/24 09:12:05;;;;;;;89.95;29.85;;;;;;;3.60;82.33;103487.66;5085830;28;20091;-70
2022/01/24 09:14:31;;;;;;;91.47;31.30;;;;;;;3.61;82.80;103489.47;5080755;28;20037;-70
2022/01/24 09:16:56;;;;;;;89.85;31.33;;;;;;;3.61;83.09;103487.78;5084475;28;20036;-71
2022/01/24 09:19:22;;;;;;;86.15;30.15;;;;;;;3.63;82.56;103485.34;5077216;28;20017;-70
2022/01/24 09:21:47;;;;;;;92.38;31.60;;;;;;;3.63;81.50;103501.72;5090573;28;20025;-70
2022/01/24 09:24:12;;;;;;;91.90;30.05;;;;;;;3.62;80.92;103492.19;5085551;28;20020;-70
2022/01/24 09:26:38;;;;;;;94.25;30.25;;;;;;;3.63;81.98;103496.56;5077415;28;20032;-70
2022/01/24 09:29:03;;;;;;;96.50;30.45;;;;;;;3.60;80.50;103491.13;5085857;28;20028;-70
2022/01/24 09:31:29;;;;;;;95.47;30.67;;;;;;;3.58;80.91;103487.50;5074750;28;20021;-70
2022/01/24 09:33:54;;;;;;;87.60;28.65;;;;;;;3.57;82.17;103485.69;5084598;28;20028;-71
2022/01/24 09:36:20;;;;;;;94.20;31.08;;;;;;;3.56;80.61;103483.84;5075304;28;20268;-70
2022/01/24 09:38:45;;;;;;;98.00;31.85;;;;;;;3.56;82.05;103489.00;5078672;28;20036;-70
2022/01/24 09:41:15;;;;;;;86.82;30.45;;;;;;;3.57;81.73;103489.94;5080683;28;20066;-70
2022/01/24 09:43:43;;;;;;;93.60;31.05;;;;;;;3.58;81.46;103481.44;5084692;28;20024;-70
2022/01/24 09:46:09;;;;;;;91.50;29.55;;;;;;;3.59;82.69;103481.59;5078891;28;20025;-71
2022/01/24 09:48:36;;;;;;;96.57;31.83;;;;;;;3.62;82.35;103492.19;5077851;28;20175;-70
2022/01/24 09:51:01;;;;;;;83.72;28.55;;;;;;;3.62;81.83;103489.63;5079080;28;20275;-70
2022/01/24 09:53:26;;;;;;;90.05;30.05;;;;;;;3.62;80.46;103489.63;5092244;28;20015;-70
2022/01/24 09:55:52;;;;;;;92.80;28.60;;;;;;;3.62;80.05;103484.47;5072649;28;20021;-70
2022/01/24 09:58:19;;;;;;;86.93;28.73;;;;;;;3.63;81.08;103481.09;5084920;28;20020;-70
2022/01/24 10:00:45;;;;;;;87.28;29.08;;;;;;;3.64;81.79;103485.50;5080424;28;20067;-70
2022/01/24 10:03:14;;;;;;;89.22;28.15;;;;;;;3.63;81.12;103483.66;5078076;28;20016;-71
2022/01/24 10:05:42;;;;;;;90.50;27.97;;;;;;;3.64;81.01;103485.50;5078295;28;20024;-70
2022/01/24 10:08:13;;;;;;;80.80;27.75;;;;;;;3.66;81.02;103490.78;5076741;28;20389;-70
2022/01/24 10:10:51;;;;;;;80.75;27.35;;;;;;;3.67;81.04;103491.72;5081271;28;20062;-70
2022/01/24 10:16:29;;;;;;;77.13;26.67;;;;;;;3.71;80.70;103480.91;5079908;28;20023;-70
2022/01/24 10:19:17;;;;;;;84.20;27.35;;;;;;;3.73;81.19;103479.41;5079998;28;20021;-71
2022/01/24 10:22:00;;;;;;;90.43;28.45;;;;;;;3.75;81.71;103476.22;5074037;28;20032;-71
2022/01/24 10:24:43;;;;;;;88.65;28.92;;;;;;;3.78;81.66;103485.88;5083546;28;20032;-78
2022/01/24 10:27:13;;;;;;;85.55;27.92;;;;;;;3.78;79.89;103485.88;5072578;28;20196;-70
2022/01/24 10:29:53;;;;;;;84.45;28.65;;;;;;;3.77;80.29;103487.56;5082240;28;20039;-70
2022/01/24 10:32:36;;;;;;;86.80;27.85;;;;;;;3.76;79.67;103484.84;5076494;28;20033;-70
2022/01/24 10:35:37;;;;;;;84.30;27.38;;;;;;;3.79;80.85;103478.28;5084058;28;20017;-70
2022/01/24 10:38:21;;;;;;;86.68;27.70;;;;;;;3.81;80.11;103483.63;5069239;28;20016;-70
2022/01/24 10:40:55;;;;;;;87.55;27.30;;;;;;;3.79;80.47;103473.13;5080626;28;20130;-70
2022/01/24 10:43:24;;;;;;;86.68;29.30;;;;;;;3.83;80.23;103474.34;5075037;28;20044;-70
2022/01/24 10:45:51;;;;;;;87.72;28.30;;;;;;;3.85;80.84;103472.78;5096291;28;20020;-69
2022/01/24 10:48:21;;;;;;;90.75;29.65;;;;;;;3.87;80.85;103470.34;5066937;28;20264;-70
2022/01/24 10:50:47;;;;;;;91.95;29.10;;;;;;;3.88;81.31;103473.09;5084043;28;20081;-70
2022/01/24 10:53:16;;;;;;;89.78;29.80;;;;;;;3.89;80.83;103467.16;5077510;28;20024;-70
2022/01/24 10:55:43;;;;;;;94.13;30.02;;;;;;;3.90;79.56;103463.84;5066625;28;20059;-70
2022/01/24 10:58:18;;;;;;;90.47;29.75;;;;;;;3.89;79.59;103464.59;5069973;28;20119;-70
2022/01/24 11:00:44;;;;;;;86.53;28.75;;;;;;;3.89;79.20;103462.00;5067748;28;20031;-70
2022/01/24 11:03:18;;;;;;;92.88;29.55;;;;;;;3.90;80.34;103461.25;5074906;28;20271;-70
2022/01/24 11:05:44;;;;;;;94.68;29.65;;;;;;;3.92;80.87;103459.72;5073562;28;20104;-70
2022/01/24 11:08:14;;;;;;;94.70;31.38;;;;;;;3.93;80.28;103456.38;5081717;28;20172;-70
2022/01/24 11:10:48;;;;;;;95.45;29.63;;;;;;;3.97;81.18;103461.06;5083308;28;20009;-70
2022/01/24 11:13:18;;;;;;;94.82;31.35;;;;;;;3.99;79.93;103454.34;5082378;28;20266;-70
2022/01/24 11:15:48;;;;;;;;;;;;;;;4.05;81.59;103460.84;5080005;28;20302;-70
2022/01/24 11:18:15;;;;;;;85.10;27.42;;;;;;;4.04;80.38;103454.81;5075151;28;19900;-70
2022/01/24 11:20:45;;;;;;;93.28;29.58;;;;;;;4.04;80.18;103451.28;5079749;28;20020;-70
2022/01/24 11:23:11;;;;;;;93.18;29.85;;;;;;;4.04;79.43;103457.38;5083964;28;20024;-70
2022/01/24 11:25:43;;;;;;;88.03;29.08;;;;;;;4.06;80.59;103457.53;5075308;28;20039;-70
2022/01/24 11:28:10;;;;;;;80.57;27.52;;;;;;;4.06;79.82;103458.41;5082591;28;20040;-70
2022/01/24 11:30:42;;;;;;;88.88;27.95;;;;;;;4.09;80.92;103455.22;5072169;28;20009;-70
2022/01/24 11:33:15;;;;;;;89.55;29.58;;;;;;;4.08;79.45;103443.97;5079646;28;20096;-70
2022/01/24 11:35:50;;;;;;;84.30;28.90;;;;;;;4.08;79.97;103443.97;5082446;28;20080;-70
2022/01/24 11:38:42;;;;;;;90.82;28.75;;;;;;;4.11;79.86;103443.34;5079658;28;20035;-70
2022/01/24 11:41:23;;;;;;;86.85;28.05;;;;;;;4.11;79.41;103453.69;5074022;28;20024;-70
2022/01/24 11:43:56;;;;;;;80.07;27.13;;;;;;;4.09;79.09;103455.22;5082027;28;20344;-70
2022/01/24 11:46:37;;;;;;;76.78;26.80;;;;;;;4.08;78.67;103458.56;5071430;28;20210;-70
2022/01/24 11:49:09;;;;;;;88.88;29.10;;;;;;;4.02;77.84;103445.09;5069764;28;20039;-70
2022/01/24 11:51:37;;;;;;;79.20;26.45;;;;;;;4.01;79.24;103449.34;5078334;28;20040;-70
2022/01/24 11:54:02;;;;;;;94.05;33.53;;;;;;;4.02;78.23;103442.53;5074864;28;20086;-70
2022/01/24 11:56:35;;;;;;;86.55;29.73;;;;;;;4.03;80.06;103442.66;5067743;28;20262;-70
2022/01/24 11:59:20;;;;;;;80.88;27.52;;;;;;;4.08;80.65;103440.50;5071720;28;20060;-70
2022/01/24 12:01:52;;;;;;;77.63;28.00;;;;;;;4.08;79.65;103431.06;5082179;28;20076;-70
2022/01/24 12:04:54;;;;;;;89.32;29.10;;;;;;;4.12;80.11;103427.13;5082547;28;20275;-70
2022/01/24 12:07:25;;;;;;;85.47;27.60;;;;;;;4.11;79.95;103423.66;5070320;28;20035;-70
2022/01/24 12:09:53;;;;;;;85.65;29.27;;;;;;;4.12;80.01;103420.28;5074751;28;20025;-70
2022/01/24 12:12:38;;;;;;;83.25;27.00;;;;;;;4.15;79.85;103427.41;5083386;28;20259;-70
2022/01/24 12:15:05;;;;;;;81.13;27.20;;;;;;;4.16;80.20;103418.91;5076152;28;20349;-70
2022/01/24 12:17:51;;;;;;;82.97;27.58;;;;;;;4.20;81.18;103415.84;5075183;28;20079;-70
2022/01/24 12:20:42;;;;;;;80.63;26.88;;;;;;;4.24;81.53;103417.91;5068454;28;20067;-71
2022/01/24 12:23:16;;;;;;;83.15;26.15;;;;;;;4.26;80.99;103418.97;5068998;28;20024;-71
2022/01/24 12:25:50;;;;;;;78.60;27.48;;;;;;;4.30;80.58;103413.31;5075388;28;20283;-71
2022/01/24 12:28:16;;;;;;;81.03;28.00;;;;;;;4.29;79.73;103416.66;5083817;28;20040;-71
2022/01/24 12:31:22;;;;;;;85.47;28.95;;;;;;;4.32;81.19;103410.88;5066798;28;20083;-71
2022/01/24 12:33:53;;;;;;;83.88;28.35;;;;;;;4.30;78.87;103413.31;5070667;28;20036;-70
2022/01/24 12:36:48;;;;;;;81.13;28.50;;;;;;;4.33;80.57;103410.09;5082250;28;20041;-71
2022/01/24 12:39:19;;;;;;;77.55;27.90;;;;;;;4.33;78.79;103416.16;5076065;28;20074;-71
2022/01/24 12:41:49;;;;;;;83.25;27.08;;;;;;;4.34;78.35;103412.84;5083121;28;20031;-71
2022/01/24 12:47:00;;;;;;;76.28;27.02;;;;;;;4.36;78.41;103402.66;5083453;28;20039;-71
2022/01/24 12:49:30;;;;;;;86.22;28.05;;;;;;;4.39;79.69;103400.34;5071585;28;20029;-71
2022/01/24 12:52:00;;;;;;;80.65;25.60;;;;;;;4.40;77.64;103401.22;5070425;28;20028;-71
2022/01/24 12:54:29;;;;;;;;;;;;;;;4.44;79.83;103400.75;5081206;28;20318;-70
2022/01/24 12:57:03;;;;;;;69.90;24.00;;;;;;;4.41;78.76;103400.47;5086628;28;19914;-71
2022/01/24 12:59:28;;;;;;;75.32;25.67;;;;;;;4.38;78.45;103398.50;5083403;28;20020;-70
2022/01/24 13:01:57;;;;;;;82.32;26.42;;;;;;;4.33;76.90;103392.94;5084069;28;20032;-70
2022/01/24 13:04:51;;;;;;;84.97;27.85;;;;;;;4.33;78.13;103387.78;5084326;28;20023;-70
2022/01/24 13:07:16;;;;;;;75.63;25.42;;;;;;;4.31;78.18;103384.13;5075958;28;20024;-71
2022/01/24 13:09:42;;;;;;;76.95;26.63;;;;;;;4.30;76.77;103378.84;5073712;28;20238;-71
2022/01/24 13:12:09;;;;;;;76.13;25.52;;;;;;;4.28;77.39;103373.53;5072911;28;20099;-70